D/T METAR WX W/SPE G/SPE TEMP DEWP FEEL
24/05/22 20:50 EGPN 241950Z 00000KT 9999 FEW025 SCT048 11/09 Q1002 11°C 9°C 11.8°C
24/05/22 20:20 EGPN 241920Z VRB02KT 9999 VCSH FEW020CB SCT035 11/09 Q1002 RESHRA VCSH 2.3mph 11°C 9°C 11.8°C
24/05/22 19:50 EGPN 241850Z 12003KT 9999 SHRA SCT020CB SCT035 11/09 Q1002 SHRA 3.5mph 11°C 9°C 11.8°C
24/05/22 19:20 EGPN 241820Z 09007KT 9999 -SHRA FEW020CB SCT035 12/09 Q1001 -SHRA 8.1mph 12°C 9°C 12.8°C
24/05/22 18:50 EGPN 241750Z 09004KT 9999 FEW020CB SCT048 13/07 Q1001 4.6mph 13°C 7°C 13.0°C
24/05/22 18:20 EGPN 241720Z 11004KT 9999 FEW020CB SCT048 13/08 Q1001 4.6mph 13°C 8°C 13.4°C
24/05/22 17:50 EGPN 241650Z 14005KT 100V190 9999 FEW020CB SCT048 13/09 Q1001 5.8mph 13°C 9°C 13.8°C
24/05/22 17:20 EGPN 241620Z VRB02KT 9999 FEW020CB SCT048 13/08 Q1001 RESHRA 2.3mph 13°C 8°C 13.4°C
24/05/22 16:50 EGPN 241550Z 02009KT 340V040 9999 VCSH FEW020CB SCT048 14/07 Q1001 VCSH 10.4mph 14°C 7°C 14.0°C
24/05/22 16:20 EGPN 241520Z 21005KT 9999 FEW025CB SCT048 14/07 Q1001 5.8mph 14°C 7°C 14.0°C
24/05/22 15:50 EGPN 241450Z 11008KT 9999 VCSH FEW025CB SCT048 14/09 Q1001 VCSH 9.2mph 14°C 9°C 14.8°C
24/05/22 15:20 EGPN 241420Z 09005KT 9999 FEW025CB SCT048 14/09 Q1001 5.8mph 14°C 9°C 14.8°C
24/05/22 14:50 EGPN 241350Z 12007KT 9999 FEW025CB 14/09 Q1001 8.1mph 14°C 9°C 14.8°C
24/05/22 14:20 EGPN 241320Z 14001KT 9999 FEW025CB 14/08 Q1001 1.2mph 14°C 8°C 14.4°C
24/05/22 13:50 EGPN 241250Z 18003KT 9999 VCSH FEW025 13/08 Q1000 RESHRA VCSH 3.5mph 13°C 8°C 13.4°C
24/05/22 13:20 EGPN 241220Z 27007G18KT 240V300 9999 SHRA FEW015CB SCT035 12/07 Q1001 SHRA 8.1mph 20.7mph 12°C 7°C 12.0°C
24/05/22 12:50 EGPN 241150Z VRB01KT 9999 VCSH FEW015 SCT040 12/08 Q1000 VCSH 1.2mph 12°C 8°C 12.4°C
24/05/22 12:20 EGPN 241120Z 00000KT 9999 VCSH FEW015 SCT030 12/07 Q1000 VCSH 12°C 7°C 12.0°C
24/05/22 11:50 EGPN 241050Z VRB01KT 9999 -SHRA FEW015 SCT030 11/07 Q1000 -SHRA 1.2mph 11°C 7°C 11.0°C
24/05/22 11:20 EGPN 241020Z 32008KT 260V020 9999 -SHRA SCT030 12/06 Q1000 -SHRA 9.2mph 12°C 6°C 11.6°C
24/05/22 10:50 EGPN 240950Z 25004KT 9999 VCSH FEW030 13/07 Q1000 VCSH 4.6mph 13°C 7°C 13.0°C
24/05/22 10:20 EGPN 240920Z 28006KT 240V350 9999 FEW030 14/07 Q1000 6.9mph 14°C 7°C 14.0°C
24/05/22 09:50 EGPN 240850Z 25005KT 9999 FEW025 13/07 Q1000 5.8mph 13°C 7°C 13.0°C
24/05/22 09:20 EGPN 240820Z 27004KT 240V330 9999 FEW020 12/07 Q1000 4.6mph 12°C 7°C 12.0°C
24/05/22 08:50 EGPN 240750Z 28006KT 9999 FEW020 12/07 Q1000 6.9mph 12°C 7°C 12.0°C
24/05/22 08:20 EGPN 240720Z 26004KT 9999 FEW020 11/07 Q1000 4.6mph 11°C 7°C 11.0°C
24/05/22 07:50 EGPN 240650Z 28004KT 9999 FEW020 10/07 Q1000 4.6mph 10°C 7°C 10.0°C
24/05/22 07:20 EGPN 240620Z 28005KT 9999 FEW020 10/07 Q0999 5.8mph 10°C 7°C 10.0°C
24/05/22 06:50 EGPN 240550Z 28005KT 9999 FEW020 10/07 Q0999 5.8mph 10°C 7°C 10.0°C
24/05/22 06:20 EGPN 240520Z 29002KT 9999 FEW020 09/07 Q0999 2.3mph 9°C 7°C 9.0°C
23/05/22 20:50 EGPN 231950Z VRB02KT 9999 VCSH FEW015 SCT032 13/08 Q0998 VCSH 2.3mph 13°C 8°C 13.4°C
23/05/22 20:20 EGPN 231920Z 02006KT 340V060 9999 VCSH SCT032 BKN041 13/08 Q0997 VCSH 6.9mph 13°C 8°C 13.4°C
23/05/22 19:50 EGPN 231850Z 03004KT 9999 VCSH SCT025 BKN038 13/09 Q0997 VCSH 4.6mph 13°C 9°C 13.8°C
23/05/22 19:20 EGPN 231820Z 04003KT 360V070 9999 VCSH SCT025 BKN035 14/09 Q0997 VCSH 3.5mph 14°C 9°C 14.8°C
23/05/22 18:20 EGPN 231720Z 31007KT 9999 VCSH FEW020TCU SCT025 15/08 Q0997 VCSH 8.1mph 15°C 8°C 15.4°C
23/05/22 17:50 EGPN 231650Z 30011KT 9999 FEW020TCU 15/08 Q0997 12.7mph 15°C 8°C 15.4°C
23/05/22 17:20 EGPN 231620Z 29009KT 9999 FEW020 16/10 Q0997 10.4mph 16°C 10°C 17.3°C
23/05/22 16:50 EGPN 231550Z 27008KT 240V300 9999 FEW020 16/11 Q0997 9.2mph 16°C 11°C 17.8°C
23/05/22 16:20 EGPN 231520Z 25005KT 9999 VCSH FEW015 15/11 Q0997 VCSH 5.8mph 15°C 11°C 16.8°C
23/05/22 15:50 EGPN 231450Z 26005KT 9999 VCSH FEW015 BKN045 13/11 Q0997 VCSH 5.8mph 13°C 11°C 14.8°C
23/05/22 14:50 EGPN 231350Z 33004KT 310V010 9000 4000W -SHRA FEW012 BKN040 13/10 Q0997 -SHRA 4.6mph 13°C 10°C 14.3°C
23/05/22 14:20 EGPN 231320Z 31012KT 280V340 9999 -SHRA FEW012 SCT045 13/09 Q0997 -SHRA 13.8mph 13°C 9°C 13.8°C
23/05/22 13:50 EGPN 231250Z 26014KT 9999 VCSH FEW012 SCT045 15/10 Q0997 RESHRA VCSH 16.1mph 15°C 10°C 16.3°C
23/05/22 13:20 EGPN 231220Z 00000KT 9999 VCSH FEW012 SCT030 14/09 Q0997 VCSH 14°C 9°C 14.8°C
23/05/22 12:50 EGPN 231150Z 00000KT 9999 VCSH FEW012 SCT030 13/09 Q0997 VCSH 13°C 9°C 13.8°C
23/05/22 12:20 EGPN 231120Z 27006KT 230V310 9999 -SHRA FEW012 SCT030 15/10 Q0997 -SHRA 6.9mph 15°C 10°C 16.3°C
23/05/22 11:50 EGPN 231050Z 24006KT 9999 FEW012 SCT025 14/10 Q0997 6.9mph 14°C 10°C 15.3°C
23/05/22 10:50 EGPN 230950Z 24006KT 9999 FEW012 SCT025 13/09 Q0998 6.9mph 13°C 9°C 13.8°C
23/05/22 10:20 EGPN 230920Z 23007KT 9999 FEW012 SCT020 13/09 Q0998 8.1mph 13°C 9°C 13.8°C
23/05/22 09:50 EGPN 230850Z 24007KT 9999 FEW012 SCT020 12/09 Q0999 8.1mph 12°C 9°C 12.8°C
23/05/22 09:20 EGPN 230820Z 24007KT 9999 FEW012 SCT020 12/09 Q0999 8.1mph 12°C 9°C 12.8°C
23/05/22 08:50 EGPN 230750Z 24005KT 9999 FEW020 12/09 Q0999 5.8mph 12°C 9°C 12.8°C
23/05/22 08:20 EGPN 230720Z 25005KT 9999 FEW020 12/09 Q0999 5.8mph 12°C 9°C 12.8°C
23/05/22 07:50 EGPN 230650Z 30002KT 9999 FEW020 11/09 Q0999 2.3mph 11°C 9°C 11.8°C
23/05/22 07:20 EGPN 230620Z 30002KT 9999 FEW020 11/09 Q0999 2.3mph 11°C 9°C 11.8°C
23/05/22 06:20 EGPN 230520Z VRB01KT 9999 FEW015 SCT020 10/09 Q0999 1.2mph 10°C 9°C 10.8°C
22/05/22 21:50 EGPN 222050Z 25011KT 9999 4000S SHRA FEW015 SCT038 13/11 Q1001 SHRA 12.7mph 13°C 11°C 14.8°C
22/05/22 21:20 EGPN 222020Z 23008KT 9999 VCSH FEW020 SCT038 13/11 Q1001 VCSH 9.2mph 13°C 11°C 14.8°C
22/05/22 20:20 EGPN 221920Z 23007KT 9999 SCT038 14/11 Q1001 8.1mph 14°C 11°C 15.8°C
22/05/22 19:50 EGPN 221850Z 22010KT 9999 -SHRA SCT038 14/11 Q1001 -SHRA 11.5mph 14°C 11°C 15.8°C
22/05/22 19:20 EGPN 221820Z 22017KT 9999 -SHRA SCT038 14/11 Q1002 -SHRA 19.6mph 14°C 11°C 15.8°C
22/05/22 18:50 EGPN 221750Z 23008KT 9999 VCSH SCT038 16/11 Q1002 VCSH 9.2mph 16°C 11°C 17.8°C
22/05/22 18:20 EGPN 221720Z 23010KT 9999 SCT038 16/11 Q1002 11.5mph 16°C 11°C 17.8°C
22/05/22 17:50 EGPN 221650Z 24008KT 9999 SCT038 16/11 Q1002 9.2mph 16°C 11°C 17.8°C
22/05/22 17:20 EGPN 221620Z 23012KT 9999 FEW025 BKN038 16/10 Q1003 13.8mph 16°C 10°C 17.3°C
22/05/22 16:50 EGPN 221550Z 22010KT 9999 FEW025 BKN032 16/11 Q1003 11.5mph 16°C 11°C 17.8°C
22/05/22 16:20 EGPN 221520Z 23009KT 9999 FEW025 BKN032 16/11 Q1003 10.4mph 16°C 11°C 17.8°C
22/05/22 15:50 EGPN 221450Z 23011KT 9999 FEW025 BKN032 16/10 Q1004 12.7mph 16°C 10°C 17.3°C
22/05/22 14:50 EGPN 221350Z 17004KT 140V200 9999 FEW025 BKN032 16/12 Q1004 4.6mph 16°C 12°C 18.3°C
22/05/22 14:20 EGPN 221320Z 21008KT 9999 VCSH BKN032 15/11 Q1005 VCSH 9.2mph 15°C 11°C 16.8°C
22/05/22 13:50 EGPN 221250Z 20012KT 9999 -RA BKN032 15/11 Q1005 -RA 13.8mph 15°C 11°C 16.8°C
22/05/22 13:20 EGPN 221220Z 20011KT 9999 BKN025 15/11 Q1005 12.7mph 15°C 11°C 16.8°C
22/05/22 12:50 EGPN 221150Z 21011KT 9999 SCT025 15/11 Q1006 12.7mph 15°C 11°C 16.8°C
22/05/22 12:20 EGPN 221120Z 22011KT 9999 SCT025 15/11 Q1006 12.7mph 15°C 11°C 16.8°C
22/05/22 11:50 EGPN 221050Z 22011KT 9999 SCT025 15/10 Q1006 12.7mph 15°C 10°C 16.3°C
22/05/22 11:20 EGPN 221020Z 22010KT 9999 BKN020 15/11 Q1006 11.5mph 15°C 11°C 16.8°C
22/05/22 10:50 EGPN 220950Z 22010KT 9999 BKN020 15/10 Q1007 11.5mph 15°C 10°C 16.3°C
22/05/22 10:20 EGPN 220920Z 23010KT 9999 BKN020 14/11 Q1007 11.5mph 14°C 11°C 15.8°C
22/05/22 09:50 EGPN 220850Z 23010KT 9999 BKN020 14/11 Q1007 11.5mph 14°C 11°C 15.8°C
22/05/22 09:20 EGPN 220820Z 23011KT 9999 BKN020 14/11 Q1008 12.7mph 14°C 11°C 15.8°C
22/05/22 08:50 EGPN 220750Z 23010KT 9999 BKN020 14/11 Q1008 11.5mph 14°C 11°C 15.8°C
22/05/22 08:20 EGPN 220720Z 23008KT 9999 VCSH BKN020 14/11 Q1008 VCSH 9.2mph 14°C 11°C 15.8°C
21/05/22 15:50 EGPN 211450Z 24013KT 9999 FEW035 14/09 Q1014 15.0mph 14°C 9°C 14.8°C
21/05/22 15:20 EGPN 211420Z 24016KT 9999 FEW035 14/09 Q1014 18.4mph 14°C 9°C 14.8°C
21/05/22 14:50 EGPN 211350Z 24019KT 9999 FEW035 14/09 Q1014 21.9mph 14°C 9°C 14.8°C
21/05/22 14:20 EGPN 211320Z 24016KT 9999 FEW035 15/09 Q1015 18.4mph 15°C 9°C 15.8°C
21/05/22 13:50 EGPN 211250Z 24017KT 9999 FEW035 15/09 Q1015 19.6mph 15°C 9°C 15.8°C
21/05/22 13:20 EGPN 211220Z 24017KT 9999 SCT035 14/08 Q1015 19.6mph 14°C 8°C 14.4°C
21/05/22 12:50 EGPN 211150Z 26014KT 9999 SCT032 14/08 Q1014 16.1mph 14°C 8°C 14.4°C
21/05/22 12:20 EGPN 211120Z 25017KT 9999 SCT025 14/08 Q1014 19.6mph 14°C 8°C 14.4°C
21/05/22 11:50 EGPN 211050Z 26016KT 9999 SCT025 14/07 Q1014 18.4mph 14°C 7°C 14.0°C
21/05/22 11:20 EGPN 211020Z 27016KT 9999 SCT025 14/07 Q1014 18.4mph 14°C 7°C 14.0°C
21/05/22 10:50 EGPN 210950Z 25015KT 9999 SCT025 14/07 Q1014 17.3mph 14°C 7°C 14.0°C
21/05/22 10:20 EGPN 210920Z 25013KT 9999 FEW020 14/08 Q1014 15.0mph 14°C 8°C 14.4°C
21/05/22 09:50 EGPN 210850Z 26013KT 9999 FEW020 14/07 Q1014 15.0mph 14°C 7°C 14.0°C
21/05/22 09:20 EGPN 210820Z 26011KT 9999 FEW020 13/08 Q1014 12.7mph 13°C 8°C 13.4°C